Time;durP1;ratioP1;P1;durP2;ratioP2;P2;SDS_P1;SDS_P2;PMS_P1;PMS_P2;Temp;Humidity;BMP_temperature;BMP_pressure;BME280_temperature;BME280_humidity;BME280_pressure;Samples;Min_cycle;Max_cycle;Signal;HPM_P1;HPM_P2
2021/06/08 00:01:00;;;;;;;;;;;;;;;26.42;37.59;100710.94;4998356;28;966;-29
2021/06/08 00:03:25;;;;;;;;;;;;;;;26.46;37.30;100708.75;5017029;28;2025;-27
2021/06/08 00:05:50;;;;;;;;;;;;;;;26.49;37.12;100717.28;5017730;28;899;-31
2021/06/08 00:08:16;;;;;;;;;;;;;;;26.41;37.10;100703.84;5018213;28;784;-31
2021/06/08 00:10:41;;;;;;;;;;;;;;;26.42;36.94;100705.56;5017593;28;808;-28
2021/06/08 00:13:06;;;;;;;;;;;;;;;26.49;37.10;100697.59;5017369;28;1173;-28
2021/06/08 00:15:31;;;;;;;;;;;;;;;26.44;37.15;100698.13;5017918;28;757;-28
2021/06/08 00:17:57;;;;;;;;;;;;;;;26.44;37.15;100699.97;5009732;28;1012;-27
2021/06/08 00:20:22;;;;;;;;;;;;;;;26.44;37.13;100697.28;4997828;28;827;-27
2021/06/08 00:22:47;;;;;;;;;;;;;;;26.46;36.97;100689.84;4998011;28;1972;-26
2021/06/08 00:25:13;;;;;;;;;;;;;;;26.43;37.00;100688.34;4997658;28;761;-32
2021/06/08 00:27:38;;;;;;;;;;;;;;;26.41;36.95;100685.81;4997958;28;769;-29
2021/06/08 00:30:04;;;;;;;;;;;;;;;26.40;37.07;100678.75;4997904;28;780;-30
2021/06/08 00:32:30;;;;;;;;;;;;;;;26.41;36.99;100682.28;4997091;28;957;-29
2021/06/08 00:34:55;;;;;;;;;;;;;;;26.41;37.26;100677.72;4998049;28;778;-29
2021/06/08 00:37:20;;;;;;;;;;;;;;;26.40;37.26;100677.91;4997781;28;806;-31
2021/06/08 00:39:46;;;;;;;;;;;;;;;26.42;37.40;100670.50;4997350;28;753;-29
2021/06/08 00:42:11;;;;;;;;;;;;;;;26.43;37.52;100676.69;4997718;28;1961;-30
2021/06/08 00:44:36;;;;;;;;;;;;;;;26.41;37.71;100676.88;4997692;28;738;-29
2021/06/08 00:47:01;;;;;;;;;;;;;;;26.42;37.86;100675.88;4997050;28;937;-31
2021/06/08 00:49:27;;;;;;;;;;;;;;;26.38;37.70;100672.69;4997509;28;945;-28
2021/06/08 00:51:52;;;;;;;;;;;;;;;26.47;37.18;100672.63;4997544;28;761;-27
2021/06/08 00:54:18;;;;;;;;;;;;;;;26.40;37.45;100669.81;4996888;28;847;-31
2021/06/08 00:56:43;;;;;;;;;;;;;;;26.41;37.55;100669.66;4997618;28;745;-32
2021/06/08 00:59:09;;;;;;;;;;;;;;;26.44;37.45;100676.56;4997210;28;824;-30
2021/06/08 01:01:34;;;;;;;;;;;;;;;26.43;37.53;100668.63;5000771;28;1085;-32
2021/06/08 01:04:06;;;;;;;;;;;;;;;26.40;37.44;100667.97;5001519;28;1902;-28
2021/06/08 01:06:32;;;;;;;;;;;;;;;26.37;37.49;100662.94;4997671;28;760;-30
2021/06/08 01:08:57;;;;;;;;;;;;;;;26.44;37.44;100665.75;4997094;28;894;-31
2021/06/08 01:11:22;;;;;;;;;;;;;;;26.41;37.41;100664.25;4997699;28;765;-28
2021/06/08 01:13:48;;;;;;;;;;;;;;;26.41;37.76;100661.56;4996789;28;1216;-29
2021/06/08 01:16:13;;;;;;;;;;;;;;;26.39;37.74;100663.59;4997023;28;784;-27
2021/06/08 01:18:38;;;;;;;;;;;;;;;26.39;37.62;100663.59;4996711;28;1261;-28
2021/06/08 01:21:07;;;;;;;;;;;;;;;26.42;37.50;100662.41;4997121;28;753;-29
2021/06/08 01:23:33;;;;;;;;;;;;;;;26.41;37.23;100666.94;4997212;28;1914;-34
2021/06/08 01:25:58;;;;;;;;;;;;;;;26.40;37.20;100665.28;4998993;28;753;-28
2021/06/08 01:28:24;;;;;;;;;;;;;;;26.39;37.26;100668.97;4983747;28;741;-30
2021/06/08 01:30:49;;;;;;;;;;;;;;;26.39;37.10;100660.88;5000954;28;828;-32
2021/06/08 01:33:15;;;;;;;;;;;;;;;26.43;37.22;100660.53;4982955;28;961;-30
2021/06/08 01:35:40;;;;;;;;;;;;;;;26.40;37.27;100667.97;5001300;28;769;-29
2021/06/08 01:38:05;;;;;;;;;;;;;;;26.43;37.43;100665.91;5000991;28;772;-27
2021/06/08 01:40:31;;;;;;;;;;;;;;;26.42;37.42;100670.50;4983604;28;812;-31
2021/06/08 01:42:56;;;;;;;;;;;;;;;26.38;37.51;100666.47;5000785;28;1973;-30
2021/06/08 01:45:21;;;;;;;;;;;;;;;26.35;37.73;100672.22;4983372;28;1089;-32
2021/06/08 01:47:47;;;;;;;;;;;;;;;26.34;37.58;100668.69;5000136;28;1017;-28
2021/06/08 01:50:12;;;;;;;;;;;;;;;26.35;37.62;100667.69;5000636;28;749;-29
2021/06/08 01:52:42;;;;;;;;;;;;;;;26.40;37.34;100667.97;5000901;28;805;-30
2021/06/08 01:55:08;;;;;;;;;;;;;;;26.40;37.72;100665.28;4983165;28;785;-30
2021/06/08 01:57:38;;;;;;;;;;;;;;;26.43;37.76;100669.47;5000710;28;801;-28
2021/06/08 02:00:09;;;;;;;;;;;;;;;26.39;37.77;100673.56;4983405;28;749;-28
2021/06/08 02:02:46;;;;;;;;;;;;;;;26.38;37.59;100674.56;5008045;28;1918;-32
2021/06/08 02:05:20;;;;;;;;;;;;;;;26.41;37.79;100677.72;5000591;28;820;-29
2021/06/08 02:07:45;;;;;;;;;;;;;;;26.39;37.92;100682.47;4982980;28;761;-30
2021/06/08 02:10:20;;;;;;;;;;;;;;;26.37;37.94;100675.59;5000007;28;1022;-31
2021/06/08 02:12:48;;;;;;;;;;;;;;;26.36;37.61;100679.31;5000315;28;765;-30
2021/06/08 02:15:13;;;;;;;;;;;;;;;26.36;37.82;100679.31;4982692;28;1120;-29
2021/06/08 02:17:39;;;;;;;;;;;;;;;26.38;37.89;100675.41;4999681;28;957;-29
2021/06/08 02:20:10;;;;;;;;;;;;;;;26.40;37.80;100678.75;4983214;28;738;-28
2021/06/08 02:22:36;;;;;;;;;;;;;;;26.41;37.46;100676.88;4982640;28;1914;-28
2021/06/08 02:25:01;;;;;;;;;;;;;;;26.37;37.63;100681.81;5000051;28;848;-30
2021/06/08 02:27:27;;;;;;;;;;;;;;;26.40;37.86;100681.47;4982970;28;809;-27
2021/06/08 02:29:52;;;;;;;;;;;;;;;26.40;37.65;100681.47;4999792;28;802;-29
2021/06/08 02:32:17;;;;;;;;;;;;;;;26.41;37.95;100682.28;4981491;28;958;-29
2021/06/08 02:34:43;;;;;;;;;;;;;;;26.59;37.61;100683.84;4982388;28;1181;-30
2021/06/08 02:37:10;;;;;;;;;;;;;;;26.79;37.18;100684.19;4998661;28;757;-30
2021/06/08 02:39:36;;;;;;;;;;;;;;;26.96;36.99;100684.03;4982039;28;886;-27
2021/06/08 02:42:01;;;;;;;;;;;;;;;27.02;36.86;100683.31;4999652;28;1905;-30
2021/06/08 02:44:26;;;;;;;;;;;;;;;27.06;36.89;100683.81;5000035;28;828;-29
2021/06/08 02:46:52;;;;;;;;;;;;;;;27.10;36.88;100688.66;4982083;28;997;-28
2021/06/08 02:49:17;;;;;;;;;;;;;;;27.18;36.59;100685.00;4981933;28;992;-31
2021/06/08 02:51:43;;;;;;;;;;;;;;;27.19;36.60;100685.88;4981842;28;848;-29
2021/06/08 02:54:08;;;;;;;;;;;;;;;27.20;36.46;100687.53;4981810;28;1413;-27
2021/06/08 02:56:33;;;;;;;;;;;;;;;27.28;36.16;100687.44;4981787;28;825;-26
2021/06/08 02:58:59;;;;;;;;;;;;;;;27.26;36.17;100678.66;4982067;28;757;-28
2021/06/08 03:01:24;;;;;;;;;;;;;;;27.26;36.39;100675.97;4999974;28;1110;-27
2021/06/08 03:03:51;;;;;;;;;;;;;;;27.28;36.36;100676.63;5006571;28;1906;-31
2021/06/08 03:06:17;;;;;;;;;;;;;;;27.25;36.27;100679.72;4981938;28;746;-27
2021/06/08 03:08:49;;;;;;;;;;;;;;;27.28;36.42;100682.03;4981997;28;753;-26
2021/06/08 03:11:16;;;;;;;;;;;;;;;27.34;36.00;100675.06;4981988;28;774;-28
2021/06/08 03:13:41;;;;;;;;;;;;;;;27.38;36.24;100676.34;4981874;28;1207;-28
2021/06/08 03:16:06;;;;;;;;;;;;;;;27.39;36.14;100678.03;4998677;28;824;-27
2021/06/08 03:18:32;;;;;;;;;;;;;;;27.06;35.79;100670.31;4981638;28;1005;-27
2021/06/08 03:20:58;;;;;;;;;;;;;;;26.83;35.73;100673.84;4999034;28;804;-29
2021/06/08 03:23:24;;;;;;;;;;;;;;;26.80;35.89;100669.66;4981503;28;1908;-26
2021/06/08 03:25:49;;;;;;;;;;;;;;;26.74;36.24;100675.81;4981893;28;784;-28
2021/06/08 03:28:16;;;;;;;;;;;;;;;26.67;36.24;100678.38;4981641;28;792;-26
2021/06/08 03:30:42;;;;;;;;;;;;;;;26.70;36.07;100680.72;4998937;28;804;-31
2021/06/08 03:33:07;;;;;;;;;;;;;;;26.67;36.21;100686.47;4998431;28;945;-31
2021/06/08 03:35:32;;;;;;;;;;;;;;;26.68;36.38;100688.16;4981469;28;825;-31
2021/06/08 03:37:58;;;;;;;;;;;;;;;26.72;36.31;100691.31;4981568;28;827;-28
2021/06/08 03:40:23;;;;;;;;;;;;;;;26.26;36.53;100692.97;4981437;28;813;-27
2021/06/08 03:42:48;;;;;;;;;;;;;;;25.98;36.97;100685.38;4981291;28;1906;-28
2021/06/08 03:45:14;;;;;;;;;;;;;;;25.78;37.42;100692.06;5010879;28;1022;-29
2021/06/08 03:47:40;;;;;;;;;;;;;;;25.61;38.08;100693.94;5009522;28;921;-27
2021/06/08 03:50:06;;;;;;;;;;;;;;;25.58;37.91;100696.13;4980498;28;875;-27
2021/06/08 03:52:31;;;;;;;;;;;;;;;25.56;37.79;100691.78;4998125;28;876;-31
2021/06/08 03:54:56;;;;;;;;;;;;;;;25.56;38.23;100699.00;4980763;28;981;-27
2021/06/08 03:57:27;;;;;;;;;;;;;;;25.54;38.02;100699.19;4980972;28;868;-29
2021/06/08 03:59:53;;;;;;;;;;;;;;;25.43;38.19;100699.56;4981189;28;829;-25
2021/06/08 04:02:18;;;;;;;;;;;;;;;25.22;38.61;100710.91;5006127;28;1902;-28
2021/06/08 04:04:44;;;;;;;;;;;;;;;24.72;39.92;100706.38;4998165;28;840;-27
2021/06/08 04:07:09;;;;;;;;;;;;;;;24.62;40.49;100711.06;4998014;28;765;-27
2021/06/08 04:09:34;;;;;;;;;;;;;;;24.38;40.82;100707.31;4980768;28;1301;-28
2021/06/08 04:11:59;;;;;;;;;;;;;;;24.64;40.18;100709.88;4998238;28;796;-28
2021/06/08 04:14:25;;;;;;;;;;;;;;;24.66;40.59;100712.41;4997849;28;1063;-27
2021/06/08 04:16:50;;;;;;;;;;;;;;;24.35;41.01;100708.50;4980679;28;965;-31
2021/06/08 04:19:16;;;;;;;;;;;;;;;24.73;40.46;100710.72;4997780;28;1004;-30
2021/06/08 04:21:42;;;;;;;;;;;;;;;24.61;40.72;100707.53;4980438;28;817;-33
2021/06/08 04:24:07;;;;;;;;;;;;;;;24.73;40.71;100708.03;4998170;28;1918;-27
2021/06/08 04:26:32;;;;;;;;;;;;;;;24.76;40.69;100706.84;4998271;28;746;-26
2021/06/08 04:28:58;;;;;;;;;;;;;;;24.89;40.33;100707.19;4997675;28;801;-29
2021/06/08 04:31:24;;;;;;;;;;;;;;;24.76;40.76;100706.84;4997603;28;757;-30
2021/06/08 04:33:49;;;;;;;;;;;;;;;24.40;41.46;100708.00;4997300;28;953;-28
2021/06/08 04:36:14;;;;;;;;;;;;;;;24.56;41.42;100710.72;4997549;28;836;-30
2021/06/08 04:38:40;;;;;;;;;;;;;;;24.76;40.89;100718.47;4997803;28;800;-28
2021/06/08 04:41:05;;;;;;;;;;;;;;;24.87;40.78;100719.13;4997469;28;1550;-29
2021/06/08 04:43:30;;;;;;;;;;;;;;;24.98;40.76;100723.34;4997288;28;1978;-27
2021/06/08 04:45:59;;;;;;;;;;;;;;;24.82;41.07;100728.53;4997713;28;772;-28
2021/06/08 04:48:25;;;;;;;;;;;;;;;25.00;40.96;100727.56;5008322;28;1027;-28
2021/06/08 04:50:53;;;;;;;;;;;;;;;25.10;40.64;100727.41;5016703;28;835;-31
2021/06/08 04:53:18;;;;;;;;;;;;;;;25.00;41.43;100729.41;5017347;28;792;-29
2021/06/08 04:55:43;;;;;;;;;;;;;;;25.14;41.23;100727.91;5017220;28;814;-30
2021/06/08 04:58:09;;;;;;;;;;;;;;;25.21;40.80;100734.28;5016767;28;891;-31
2021/06/08 05:00:42;;;;;;;;;;;;;;;25.06;41.28;100731.44;5016241;28;807;-27
2021/06/08 05:03:09;;;;;;;;;;;;;;;25.01;41.37;100729.25;5010174;28;1910;-29
2021/06/08 05:05:35;;;;;;;;;;;;;;;24.72;42.13;100727.03;4997018;28;942;-29
2021/06/08 05:08:14;;;;;;;;;;;;;;;24.76;42.11;100725.69;4979910;28;852;-27
2021/06/08 05:10:59;;;;;;;;;;;;;;;24.98;41.70;100723.34;4997013;28;856;-31
2021/06/08 05:13:25;;;;;;;;;;;;;;;24.60;42.80;100731.91;4979697;28;1185;-27
2021/06/08 05:15:50;;;;;;;;;;;;;;;24.82;42.24;100739.31;4997411;28;757;-28
2021/06/08 05:18:16;;;;;;;;;;;;;;;25.03;41.72;100726.38;4979386;28;965;-31
2021/06/08 05:20:56;;;;;;;;;;;;;;;25.19;41.65;100736.31;4960639;28;1152;-32
2021/06/08 05:23:22;;;;;;;;;;;;;;;25.21;41.69;100736.16;4979585;28;1998;-27
2021/06/08 05:25:50;;;;;;;;;;;;;;;25.41;41.32;100740.13;4997092;28;765;-27
2021/06/08 05:28:15;;;;;;;;;;;;;;;25.24;42.13;100742.00;4997093;28;859;-29
2021/06/08 05:30:41;;;;;;;;;;;;;;;25.15;42.47;100738.50;4979402;28;872;-28
2021/06/08 05:33:06;;;;;;;;;;;;;;;25.37;42.07;100733.41;4979265;28;1001;-28
2021/06/08 05:35:31;;;;;;;;;;;;;;;25.33;42.22;100726.69;4979333;28;880;-26
2021/06/08 05:38:03;;;;;;;;;;;;;;;25.26;42.52;100731.91;4997036;28;812;-31
2021/06/08 05:40:28;;;;;;;;;;;;;;;25.36;42.32;100731.72;4996986;28;773;-26
2021/06/08 05:42:54;;;;;;;;;;;;;;;25.29;42.45;100725.38;4996880;28;1902;-31
2021/06/08 05:45:19;;;;;;;;;;;;;;;25.28;42.22;100734.44;4997017;28;848;-28
2021/06/08 05:47:44;;;;;;;;;;;;;;;25.52;41.97;100730.00;4979061;28;1203;-29
2021/06/08 05:50:10;;;;;;;;;;;;;;;25.35;42.38;100724.66;4996728;28;761;-31
2021/06/08 05:52:39;;;;;;;;;;;;;;;25.39;42.41;100726.00;4996813;28;801;-27
2021/06/08 05:55:05;;;;;;;;;;;;;;;25.60;42.05;100727.28;4997224;28;768;-29
2021/06/08 05:57:30;;;;;;;;;;;;;;;25.59;41.77;100717.50;4979405;28;801;-27
2021/06/08 06:00:02;;;;;;;;;;;;;;;25.58;42.34;100721.22;4996770;28;773;-27
2021/06/08 06:02:28;;;;;;;;;;;;;;;25.51;42.89;100720.22;5004998;28;1967;-26
2021/06/08 06:04:53;;;;;;;;;;;;;;;25.49;43.13;100722.28;4979605;28;820;-29
2021/06/08 06:07:19;;;;;;;;;;;;;;;25.45;43.67;100721.78;4996784;28;773;-27
2021/06/08 06:09:44;;;;;;;;;;;;;;;25.39;43.95;100720.59;4979555;28;852;-22
2021/06/08 06:12:09;;;;;;;;;;;;;;;26.23;41.54;100723.00;4980901;28;808;-25
2021/06/08 06:14:35;;;;;;;;;;;;;;;26.49;40.43;100728.06;5000201;28;1286;-36
2021/06/08 06:17:00;;;;;;;;;;;;;;;26.67;39.90;100723.41;5000207;28;1028;-33
2021/06/08 06:19:26;;;;;;;;;;;;;;;26.72;39.90;100721.00;4999579;28;989;-36
2021/06/08 06:21:52;;;;;;;;;;;;;;;26.86;39.53;100731.00;5000350;28;824;-34
2021/06/08 06:24:17;;;;;;;;;;;;;;;26.82;39.55;100728.84;4982901;28;1983;-24
2021/06/08 06:26:45;;;;;;;;;;;;;;;26.86;39.45;100730.19;5000246;28;884;-17
2021/06/08 06:29:13;;;;;;;;;;;;;;;26.39;40.50;100722.91;5000780;28;796;-28
2021/06/08 06:31:38;;;;;;;;;;;;;;;26.52;40.08;100725.03;4984327;28;1099;-34
2021/06/08 06:34:03;;;;;;;;;;;;;;;26.50;40.38;100716.28;4999290;28;945;-32
2021/06/08 06:36:29;;;;;;;;;;;;;;;26.41;40.31;100717.34;4999923;28;788;-35
2021/06/08 06:38:55;;;;;;;;;;;;;;;26.47;40.44;100722.03;4982668;28;820;-33
2021/06/08 06:41:20;;;;;;;;;;;;;;;26.50;40.39;100712.75;4982499;28;751;-37
2021/06/08 06:43:50;;;;;;;;;;;;;;;26.64;40.01;100711.13;4999726;28;1902;-36
2021/06/08 06:46:15;;;;;;;;;;;;;;;26.65;39.96;100718.19;4999841;28;870;-33
2021/06/08 06:48:41;;;;;;;;;;;;;;;26.64;39.78;100711.94;4999317;28;1004;-35
2021/06/08 06:51:07;;;;;;;;;;;;;;;26.75;39.51;100713.41;4982125;28;785;-34
2021/06/08 06:53:32;;;;;;;;;;;;;;;26.86;39.20;100716.69;4999630;28;815;-21
2021/06/08 06:55:57;;;;;;;;;;;;;;;26.77;39.21;100703.25;4999437;28;769;-28
2021/06/08 06:58:22;;;;;;;;;;;;;;;26.86;39.27;100712.09;4981708;28;971;-37
2021/06/08 07:00:48;;;;;;;;;;;;;;;26.87;39.37;100705.72;4999396;28;736;-24
2021/06/08 07:03:14;;;;;;;;;;;;;;;26.84;39.42;100700.66;5007804;28;1910;-37
2021/06/08 07:05:40;;;;;;;;;;;;;;;26.94;38.97;100713.91;4981743;28;804;-37
2021/06/08 07:08:05;;;;;;;;;;;;;;;26.90;39.16;100705.34;4981948;28;793;-37
2021/06/08 07:10:31;;;;;;;;;;;;;;;26.92;39.29;100709.72;4981890;28;1003;-37
2021/06/08 07:12:56;;;;;;;;;;;;;;;26.97;38.92;100707.31;4999211;28;808;-37
2021/06/08 07:15:28;;;;;;;;;;;;;;;26.99;39.06;100708.78;4999111;28;1314;-37
2021/06/08 07:17:53;;;;;;;;;;;;;;;27.02;39.00;100702.22;4998980;28;985;-37
2021/06/08 07:20:18;;;;;;;;;;;;;;;27.13;38.77;100700.91;4999037;28;792;-37
2021/06/08 07:22:44;;;;;;;;;;;;;;;27.07;38.99;100704.38;4998438;28;1973;-37
2021/06/08 07:25:09;;;;;;;;;;;;;;;27.09;38.75;100696.94;4998991;28;749;-36
2021/06/08 07:27:35;;;;;;;;;;;;;;;27.25;38.49;100702.16;4998931;28;725;-37
2021/06/08 07:30:00;;;;;;;;;;;;;;;27.26;38.31;100698.44;4998839;28;761;-36
2021/06/08 07:32:46;;;;;;;;;;;;;;;27.25;38.56;100698.63;4998764;28;961;-29
2021/06/08 07:35:13;;;;;;;;;;;;;;;27.13;38.36;100701.78;4988262;28;1648;-31
2021/06/08 07:37:48;;;;;;;;;;;;;;;27.21;38.67;100692.75;4981116;28;874;-35
2021/06/08 07:40:18;;;;;;;;;;;;;;;27.26;38.41;100694.88;4981511;28;762;-36
2021/06/08 07:42:51;;;;;;;;;;;;;;;27.15;38.52;100693.47;4998422;28;1965;-35
2021/06/08 07:45:37;;;;;;;;;;;;;;;27.27;38.42;100693.88;4981220;28;1319;-36
2021/06/08 07:48:02;;;;;;;;;;;;;;;27.42;37.89;100691.19;4997574;28;1079;-37
2021/06/08 07:50:31;;;;;;;;;;;;;;;27.33;37.90;100694.97;4998492;28;733;-34
2021/06/08 07:52:57;;;;;;;;;;;;;;;27.32;37.81;100698.72;4980850;28;837;-35
2021/06/08 07:55:22;;;;;;;;;;;;;;;27.33;37.73;100692.28;4981261;28;555;-36
2021/06/08 07:57:47;;;;;;;;;;;;;;;27.48;37.74;100689.56;4998252;28;771;-32
2021/06/08 08:00:13;;;;;;;;;;;;;;;27.45;37.81;100693.50;4998323;28;833;-36
2021/06/08 08:02:39;;;;;;;;;;;;;;;27.43;37.68;100684.75;5006378;28;1906;-37
2021/06/08 08:05:09;;;;;;;;;;;;;;;27.42;37.89;100685.78;4981014;28;789;-36
2021/06/08 08:07:35;;;;;;;;;;;;;;;27.51;37.71;100687.34;4981958;28;798;-36
2021/06/08 08:10:00;;;;;;;;;;;;;;;27.50;37.62;100693.78;4980919;28;773;-36
2021/06/08 08:12:25;;;;;;;;;;;;;;;27.56;37.62;100685.97;4980662;28;762;-37
2021/06/08 08:14:53;;;;;;;;;;;;;;;27.57;37.35;100688.47;4998165;28;1126;-18
2021/06/08 08:17:25;;;;;;;;;;;;;;;27.72;36.39;100684.94;4997725;28;1020;-18
2021/06/08 08:19:51;;;;;;;;;;;;;;;27.81;35.99;100691.91;4980276;28;765;-19
2021/06/08 08:22:16;;;;;;;;;;;;;;;27.85;32.39;100686.97;4981108;28;1906;-37
2021/06/08 08:24:42;;;;;;;;;;;;;;;27.93;32.82;100689.56;4998132;28;773;-17
2021/06/08 08:27:07;;;;;;;;;;;;;;;27.87;31.95;100688.47;4997735;28;875;-17
2021/06/08 08:29:33;;;;;;;;;;;;;;;27.90;30.13;100686.38;4998295;28;729;-17
2021/06/08 08:31:58;;;;;;;;;;;;;;;27.96;32.31;100691.06;4997711;28;1019;-22
2021/06/08 08:34:23;;;;;;;;;;;;;;;28.11;32.04;100691.81;4979371;28;958;-17
2021/06/08 08:36:48;;;;;;;;;;;;;;;28.19;30.25;100688.19;4997434;28;836;-17
2021/06/08 08:39:14;;;;;;;;;;;;;;;28.22;31.89;100692.34;4981280;28;1208;-19
2021/06/08 08:41:39;;;;;;;;;;;;;;;28.02;30.66;100690.28;5016763;28;1168;-17
2021/06/08 08:44:06;;;;;;;;;;;;;;;28.23;29.87;100685.91;4998405;28;1910;-17
2021/06/08 08:46:32;;;;;;;;;;;;;;;28.32;29.29;100686.63;5004462;28;1191;-17
2021/06/08 08:48:58;;;;;;;;;;;;;;;28.31;30.16;100687.69;5001382;28;1012;-17
2021/06/08 08:51:23;;;;;;;;;;;;;;;28.15;32.38;100681.47;4997524;28;781;-21
2021/06/08 08:53:50;;;;;;;;;;;;;;;28.24;30.84;100688.41;4997324;28;730;-18
2021/06/08 08:56:16;;;;;;;;;;;;;;;28.26;29.26;100684.72;4980047;28;836;-19
2021/06/08 08:58:42;;;;;;;;;;;;;;;28.47;30.82;100687.44;4980320;28;757;-17
2021/06/08 09:01:07;;;;;;;;;;;;;;;28.42;30.94;100689.03;4997183;28;737;-17
2021/06/08 09:03:32;;;;;;;;;;;;;;;28.35;30.36;100688.97;4987104;28;1977;-17
2021/06/08 09:05:59;;;;;;;;;;;;;;;28.43;30.05;100686.16;4979404;28;915;-18
2021/06/08 09:08:25;;;;;;;;;;;;;;;28.46;30.46;100680.34;4997095;28;833;-22
2021/06/08 09:10:51;;;;;;;;;;;;;;;28.44;30.28;100684.28;4997017;28;816;-17
2021/06/08 09:13:16;;;;;;;;;;;;;;;28.37;30.61;100681.50;4996892;28;1479;-17
2021/06/08 09:15:42;;;;;;;;;;;;;;;28.22;30.39;100684.25;4997158;28;864;-18
2021/06/08 09:18:07;;;;;;;;;;;;;;;28.09;28.94;100679.53;4978337;28;958;-29
2021/06/08 09:20:32;;;;;;;;;;;;;;;28.24;30.38;100679.50;4997237;28;781;-30
2021/06/08 09:23:02;;;;;;;;;;;;;;;28.04;29.56;100672.00;4996967;28;1975;-30
2021/06/08 09:25:36;;;;;;;;;;;;;;;27.99;29.46;100669.03;4997121;28;813;-28
2021/06/08 09:28:20;;;;;;;;;;;;;;;28.39;30.41;100671.34;4996868;28;535;-29
2021/06/08 09:30:55;;;;;;;;;;;;;;;28.42;29.64;100678.22;4996648;28;855;-28
2021/06/08 09:33:21;;;;;;;;;;;;;;;28.46;30.82;100674.13;4996706;28;1025;-29
2021/06/08 09:36:05;;;;;;;;;;;;;;;28.49;30.38;100676.44;4996939;28;769;-29
2021/06/08 09:38:35;;;;;;;;;;;;;;;28.57;30.64;100672.75;4997102;28;797;-25
2021/06/08 09:41:12;;;;;;;;;;;;;;;28.73;30.37;100672.47;4996480;28;758;-32
2021/06/08 09:43:50;;;;;;;;;;;;;;;28.65;29.95;100663.63;4996688;28;1972;-31
2021/06/08 09:46:15;;;;;;;;;;;;;;;28.89;30.04;100664.25;4997502;28;746;-32
2021/06/08 09:48:54;;;;;;;;;;;;;;;28.79;30.23;100670.84;4982740;28;1005;-30
2021/06/08 09:51:19;;;;;;;;;;;;;;;28.81;30.43;100667.94;5000789;28;757;-29
2021/06/08 09:53:45;;;;;;;;;;;;;;;28.87;30.32;100652.75;5000914;28;753;-30
2021/06/08 09:56:10;;;;;;;;;;;;;;;28.86;30.39;100660.06;5000707;28;792;-30
2021/06/08 09:58:36;;;;;;;;;;;;;;;28.80;30.33;100658.13;5000699;28;827;-30
2021/06/08 10:01:04;;;;;;;;;;;;;;;28.83;30.46;100652.31;5000379;28;899;-28
2021/06/08 10:03:33;;;;;;;;;;;;;;;29.00;30.06;100660.16;5008318;28;1984;-30
2021/06/08 10:06:25;;;;;;;;;;;;;;;28.82;30.58;100656.91;5000834;28;793;-29
2021/06/08 10:08:51;;;;;;;;;;;;;;;28.63;31.25;100655.72;4997391;28;1171;-30
2021/06/08 10:11:17;;;;;;;;;;;;;;;28.82;30.93;100656.06;5000076;28;781;-30
2021/06/08 10:13:42;;;;;;;;;;;;;;;28.82;30.58;100666.91;5000372;28;1052;-28
2021/06/08 10:16:08;;;;;;;;;;;;;;;28.77;30.79;100661.25;5000302;28;776;-30
2021/06/08 10:18:43;;;;;;;;;;;;;;;28.67;30.53;100665.13;4999540;28;981;-30
2021/06/08 10:21:08;;;;;;;;;;;;;;;28.57;30.64;100664.63;5000358;28;760;-28
2021/06/08 10:23:34;;;;;;;;;;;;;;;28.52;30.72;100665.22;4999941;28;1983;-27
2021/06/08 10:26:07;;;;;;;;;;;;;;;28.52;31.05;100659.81;5000354;28;857;-29
2021/06/08 10:28:32;;;;;;;;;;;;;;;28.30;31.59;100665.19;5000300;28;740;-28
2021/06/08 10:30:57;;;;;;;;;;;;;;;28.28;31.83;100664.53;4999603;28;789;-28
2021/06/08 10:33:26;;;;;;;;;;;;;;;28.44;32.23;100658.06;4999722;28;953;-32
2021/06/08 10:35:52;;;;;;;;;;;;;;;28.34;32.67;100663.78;5000505;28;809;-30
2021/06/08 10:38:17;;;;;;;;;;;;;;;28.33;32.89;100655.88;4999864;28;733;-26
2021/06/08 10:40:43;;;;;;;;;;;;;;;28.32;33.26;100654.16;4999508;28;896;-31
2021/06/08 10:43:15;;;;;;;;;;;;;;;28.21;33.38;100645.53;4999954;28;2019;-31
2021/06/08 10:45:40;;;;;;;;;;;;;;;28.43;32.91;100658.25;4982445;28;803;-27
2021/06/08 10:48:19;;;;;;;;;;;;;;;28.49;32.55;100649.38;5007830;28;945;-29
2021/06/08 10:50:49;;;;;;;;;;;;;;;28.56;32.37;100636.72;5019455;28;765;-31
2021/06/08 10:53:26;;;;;;;;;;;;;;;28.35;33.06;100640.28;5018894;28;784;-31
2021/06/08 10:55:51;;;;;;;;;;;;;;;28.33;32.84;100629.66;5019489;28;757;-33
2021/06/08 10:58:32;;;;;;;;;;;;;;;28.33;32.84;100626.97;5000663;28;769;-32
2021/06/08 11:00:57;;;;;;;;;;;;;;;28.28;32.97;100617.75;5001159;28;1446;-32
2021/06/08 11:03:43;;;;;;;;;;;;;;;28.43;32.86;100623.06;5010705;28;1906;-30
2021/06/08 11:06:08;;;;;;;;;;;;;;;28.41;33.12;100611.63;4999434;28;1073;-30
2021/06/08 11:08:52;;;;;;;;;;;;;;;28.26;32.45;100614.38;4999167;28;853;-28
2021/06/08 11:11:37;;;;;;;;;;;;;;;28.55;32.73;100610.69;4999486;28;872;-31
2021/06/08 11:14:02;;;;;;;;;;;;;;;28.58;32.46;100607.59;4999041;28;1286;-30
2021/06/08 11:16:31;;;;;;;;;;;;;;;28.27;31.99;100605.22;4999143;28;813;-31
2021/06/08 11:18:56;;;;;;;;;;;;;;;28.58;32.24;100599.47;4998744;28;1028;-31
2021/06/08 11:21:22;;;;;;;;;;;;;;;28.42;32.51;100587.09;4998747;28;807;-27
2021/06/08 11:23:47;;;;;;;;;;;;;;;27.94;33.21;100587.66;4998761;28;1906;-31
2021/06/08 11:26:16;;;;;;;;;;;;;;;27.72;33.12;100588.50;4999259;28;717;-31
2021/06/08 11:28:44;;;;;;;;;;;;;;;27.95;31.90;100581.22;4998980;28;753;-30
2021/06/08 11:31:10;;;;;;;;;;;;;;;28.35;32.04;100595.16;4999106;28;761;-30
2021/06/08 11:33:42;;;;;;;;;;;;;;;27.61;33.05;100588.97;4998693;28;953;-28
2021/06/08 11:36:16;;;;;;;;;;;;;;;28.06;32.49;100588.81;4998768;28;785;-30
2021/06/08 11:38:42;;;;;;;;;;;;;;;28.00;33.37;100586.88;4998816;28;741;-32
2021/06/08 11:41:08;;;;;;;;;;;;;;;28.07;33.18;100578.84;4998474;28;523;-29
2021/06/08 11:43:33;;;;;;;;;;;;;;;28.26;32.94;100582.75;4981101;28;1971;-27
2021/06/08 11:46:01;;;;;;;;;;;;;;;28.28;32.92;100574.47;4998631;28;852;-29
2021/06/08 11:48:30;;;;;;;;;;;;;;;28.39;31.82;100573.09;4998401;28;957;-33
2021/06/08 11:50:55;;;;;;;;;;;;;;;28.55;31.97;100574.66;4998978;28;773;-32
2021/06/08 11:53:21;;;;;;;;;;;;;;;28.47;31.67;100581.06;4980872;28;563;-31
2021/06/08 11:56:06;;;;;;;;;;;;;;;28.28;31.70;100591.50;4998489;28;748;-31
2021/06/08 11:58:35;;;;;;;;;;;;;;;28.33;32.10;100585.53;4997812;28;1292;-31
2021/06/08 12:01:01;;;;;;;;;;;;;;;28.13;32.46;100590.75;4997814;28;880;-31
2021/06/08 12:03:27;;;;;;;;;;;;;;;28.02;33.17;100590.25;5006073;28;1934;-28
2021/06/08 12:05:52;;;;;;;;;;;;;;;28.06;33.31;100594.22;4998497;28;769;-30
2021/06/08 12:08:33;;;;;;;;;;;;;;;27.93;32.76;100586.81;4998165;28;800;-31
2021/06/08 12:10:58;;;;;;;;;;;;;;;27.91;33.01;100590.75;4997397;28;987;-29
2021/06/08 12:13:32;;;;;;;;;;;;;;;27.73;33.48;100594.72;4998377;28;1019;-32
2021/06/08 12:15:57;;;;;;;;;;;;;;;27.30;34.74;100595.41;4998216;28;776;-28
2021/06/08 12:18:34;;;;;;;;;;;;;;;27.01;34.88;100593.41;5001103;28;988;-30
2021/06/08 12:21:00;;;;;;;;;;;;;;;26.79;35.16;100592.44;4998456;28;773;-31
2021/06/08 12:23:28;;;;;;;;;;;;;;;26.67;35.55;100600.13;4997809;28;2094;-28
2021/06/08 12:25:54;;;;;;;;;;;;;;;26.61;35.57;100592.78;4997993;28;796;-28
2021/06/08 12:28:19;;;;;;;;;;;;;;;26.57;35.55;100604.94;4980314;28;1368;-28
2021/06/08 12:30:44;;;;;;;;;;;;;;;26.97;34.76;100602.88;4997582;28;824;-26
2021/06/08 12:33:09;;;;;;;;;;;;;;;25.35;36.36;100600.81;4997347;28;965;-27
2021/06/08 12:35:36;;;;;;;;;;;;;;;22.97;39.11;100604.50;4998044;28;757;-27
2021/06/08 12:38:10;;;;;;;;;;;;;;;23.02;41.97;100605.91;4997386;28;807;-28
2021/06/08 12:40:35;;;;;;;;;;;;;;;23.13;41.97;100605.63;4997832;28;733;-26
2021/06/08 12:43:01;;;;;;;;;;;;;;;23.23;41.87;100600.97;4997858;28;1973;-28
2021/06/08 12:45:26;;;;;;;;;;;;;;;23.25;42.33;100603.50;4997333;28;809;-29
2021/06/08 12:47:51;;;;;;;;;;;;;;;22.46;44.40;100588.22;4997371;28;902;-28
2021/06/08 12:50:21;;;;;;;;;;;;;;;24.04;42.67;100610.47;4997616;28;801;-29
2021/06/08 12:52:56;;;;;;;;;;;;;;;25.39;39.04;100614.78;4980475;28;765;-28